sensor_id;sensor_type;location;lat;lon;timestamp;temperature;humidity
77519;DHT22;66629;47.346;19.038;2023-05-10T00:01:02;11.88;77.92
77519;DHT22;66629;47.346;19.038;2023-05-10T00:03:28;11.87;78.16
77519;DHT22;66629;47.346;19.038;2023-05-10T00:05:53;11.78;78.49
77519;DHT22;66629;47.346;19.038;2023-05-10T00:08:19;11.73;78.92
77519;DHT22;66629;47.346;19.038;2023-05-10T00:10:44;11.77;78.74
77519;DHT22;66629;47.346;19.038;2023-05-10T00:13:09;11.74;78.92
77519;DHT22;66629;47.346;19.038;2023-05-10T00:15:35;11.73;79.06
77519;DHT22;66629;47.346;19.038;2023-05-10T00:18:00;11.69;79.01
77519;DHT22;66629;47.346;19.038;2023-05-10T00:20:26;11.69;79.28
77519;DHT22;66629;47.346;19.038;2023-05-10T00:22:51;11.65;79.33
77519;DHT22;66629;47.346;19.038;2023-05-10T00:25:17;11.59;79.57
77519;DHT22;66629;47.346;19.038;2023-05-10T00:27:42;11.63;79.25
77519;DHT22;66629;47.346;19.038;2023-05-10T00:30:09;11.66;79.12
77519;DHT22;66629;47.346;19.038;2023-05-10T00:32:34;11.63;79.52
77519;DHT22;66629;47.346;19.038;2023-05-10T00:35:00;11.60;79.90
77519;DHT22;66629;47.346;19.038;2023-05-10T00:37:25;11.63;79.94
77519;DHT22;66629;47.346;19.038;2023-05-10T00:39:51;11.63;79.76
77519;DHT22;66629;47.346;19.038;2023-05-10T00:42:16;11.65;79.87
77519;DHT22;66629;47.346;19.038;2023-05-10T00:44:42;11.67;79.78
77519;DHT22;66629;47.346;19.038;2023-05-10T00:47:07;11.69;79.80
77519;DHT22;66629;47.346;19.038;2023-05-10T00:49:34;11.60;79.92
77519;DHT22;66629;47.346;19.038;2023-05-10T00:51:59;11.53;80.09
77519;DHT22;66629;47.346;19.038;2023-05-10T00:54:27;11.56;80.02
77519;DHT22;66629;47.346;19.038;2023-05-10T00:56:52;11.55;80.00
77519;DHT22;66629;47.346;19.038;2023-05-10T00:59:18;11.47;79.85
77519;DHT22;66629;47.346;19.038;2023-05-10T01:01:44;11.44;80.35
77519;DHT22;66629;47.346;19.038;2023-05-10T01:04:12;11.43;80.30
77519;DHT22;66629;47.346;19.038;2023-05-10T01:06:41;11.39;80.40
77519;DHT22;66629;47.346;19.038;2023-05-10T01:09:07;11.44;80.27
77519;DHT22;66629;47.346;19.038;2023-05-10T01:11:34;11.38;80.46
77519;DHT22;66629;47.346;19.038;2023-05-10T01:14:00;11.38;80.57
77519;DHT22;66629;47.346;19.038;2023-05-10T01:16:28;11.46;80.34
77519;DHT22;66629;47.346;19.038;2023-05-10T01:18:54;11.43;80.39
77519;DHT22;66629;47.346;19.038;2023-05-10T01:24:36;11.31;80.59
77519;DHT22;66629;47.346;19.038;2023-05-10T01:33:11;11.16;81.30
77519;DHT22;66629;47.346;19.038;2023-05-10T01:35:47;11.10;81.71
77519;DHT22;66629;47.346;19.038;2023-05-10T01:41:14;10.91;82.47
77519;DHT22;66629;47.346;19.038;2023-05-10T01:44:04;10.94;82.69
77519;DHT22;66629;47.346;19.038;2023-05-10T01:46:36;10.80;83.04
77519;DHT22;66629;47.346;19.038;2023-05-10T01:49:07;10.85;82.94
77519;DHT22;66629;47.346;19.038;2023-05-10T01:51:42;10.80;83.06
77519;DHT22;66629;47.346;19.038;2023-05-10T01:54:11;10.83;83.21
77519;DHT22;66629;47.346;19.038;2023-05-10T01:56:39;10.81;83.07
77519;DHT22;66629;47.346;19.038;2023-05-10T01:59:10;10.77;83.06
77519;DHT22;66629;47.346;19.038;2023-05-10T02:01:37;10.80;83.47
77519;DHT22;66629;47.346;19.038;2023-05-10T02:04:06;10.73;83.51
77519;DHT22;66629;47.346;19.038;2023-05-10T02:06:33;10.81;83.27
77519;DHT22;66629;47.346;19.038;2023-05-10T02:09:00;10.81;83.44
77519;DHT22;66629;47.346;19.038;2023-05-10T02:11:27;10.79;83.46
77519;DHT22;66629;47.346;19.038;2023-05-10T02:13:54;10.77;83.67
77519;DHT22;66629;47.346;19.038;2023-05-10T02:16:23;10.73;83.85
77519;DHT22;66629;47.346;19.038;2023-05-10T02:18:52;10.73;83.93
77519;DHT22;66629;47.346;19.038;2023-05-10T02:21:19;10.67;84.16
77519;DHT22;66629;47.346;19.038;2023-05-10T02:23:46;10.67;84.18
77519;DHT22;66629;47.346;19.038;2023-05-10T02:26:12;10.77;83.93
77519;DHT22;66629;47.346;19.038;2023-05-10T02:28:40;10.79;83.87
77519;DHT22;66629;47.346;19.038;2023-05-10T02:31:06;10.83;83.72
77519;DHT22;66629;47.346;19.038;2023-05-10T02:33:32;10.81;83.73
77519;DHT22;66629;47.346;19.038;2023-05-10T02:35:59;10.89;83.00
77519;DHT22;66629;47.346;19.038;2023-05-10T02:38:25;10.90;82.66
77519;DHT22;66629;47.346;19.038;2023-05-10T02:40:52;10.97;82.00
77519;DHT22;66629;47.346;19.038;2023-05-10T02:43:22;11.03;81.54
77519;DHT22;66629;47.346;19.038;2023-05-10T02:45:48;11.01;81.43
77519;DHT22;66629;47.346;19.038;2023-05-10T02:48:14;11.10;81.04
77519;DHT22;66629;47.346;19.038;2023-05-10T02:50:42;11.07;80.91
77519;DHT22;66629;47.346;19.038;2023-05-10T02:53:11;11.06;80.90
77519;DHT22;66629;47.346;19.038;2023-05-10T02:55:40;11.04;80.94
77519;DHT22;66629;47.346;19.038;2023-05-10T02:58:07;10.97;80.94
77519;DHT22;66629;47.346;19.038;2023-05-10T03:00:33;10.91;81.04
77519;DHT22;66629;47.346;19.038;2023-05-10T03:02:58;10.91;81.14
77519;DHT22;66629;47.346;19.038;2023-05-10T03:05:24;10.90;81.10
77519;DHT22;66629;47.346;19.038;2023-05-10T03:07:49;10.81;81.09
77519;DHT22;66629;47.346;19.038;2023-05-10T03:10:17;10.70;81.68
77519;DHT22;66629;47.346;19.038;2023-05-10T03:18:09;10.55;81.67
77519;DHT22;66629;47.346;19.038;2023-05-10T03:20:39;10.53;81.51
77519;DHT22;66629;47.346;19.038;2023-05-10T03:25:48;10.52;81.28
77519;DHT22;66629;47.346;19.038;2023-05-10T03:28:15;10.52;81.23
77519;DHT22;66629;47.346;19.038;2023-05-10T03:30:42;10.44;81.79
77519;DHT22;66629;47.346;19.038;2023-05-10T03:33:08;10.41;81.66
77519;DHT22;66629;47.346;19.038;2023-05-10T03:35:33;10.42;81.31
77519;DHT22;66629;47.346;19.038;2023-05-10T03:37:59;10.44;81.48
77519;DHT22;66629;47.346;19.038;2023-05-10T03:40:25;10.41;81.29
77519;DHT22;66629;47.346;19.038;2023-05-10T03:42:51;10.37;81.74
77519;DHT22;66629;47.346;19.038;2023-05-10T03:45:17;10.39;81.72
77519;DHT22;66629;47.346;19.038;2023-05-10T03:47:42;10.32;81.79
77519;DHT22;66629;47.346;19.038;2023-05-10T03:50:10;10.34;81.67
77519;DHT22;66629;47.346;19.038;2023-05-10T03:52:35;10.35;81.83
77519;DHT22;66629;47.346;19.038;2023-05-10T03:55:01;10.32;81.59
77519;DHT22;66629;47.346;19.038;2023-05-10T03:57:28;10.37;81.54
77519;DHT22;66629;47.346;19.038;2023-05-10T03:59:54;10.35;81.34
77519;DHT22;66629;47.346;19.038;2023-05-10T04:02:19;10.41;81.39
77519;DHT22;66629;47.346;19.038;2023-05-10T04:04:44;10.45;81.11
77519;DHT22;66629;47.346;19.038;2023-05-10T04:07:10;10.44;81.05
77519;DHT22;66629;47.346;19.038;2023-05-10T04:09:35;10.45;80.87
77519;DHT22;66629;47.346;19.038;2023-05-10T04:12:01;10.42;80.91
77519;DHT22;66629;47.346;19.038;2023-05-10T04:14:27;10.45;80.91
77519;DHT22;66629;47.346;19.038;2023-05-10T04:16:53;10.42;81.04
77519;DHT22;66629;47.346;19.038;2023-05-10T04:19:18;10.45;80.94
77519;DHT22;66629;47.346;19.038;2023-05-10T04:21:43;10.49;80.93
77519;DHT22;66629;47.346;19.038;2023-05-10T04:24:09;10.55;80.84
77519;DHT22;66629;47.346;19.038;2023-05-10T04:26:34;10.77;80.03
77519;DHT22;66629;47.346;19.038;2023-05-10T04:29:00;10.96;79.61
77519;DHT22;66629;47.346;19.038;2023-05-10T04:31:25;11.26;78.50
77519;DHT22;66629;47.346;19.038;2023-05-10T04:33:51;11.57;77.51
77519;DHT22;66629;47.346;19.038;2023-05-10T04:36:17;11.87;76.34
77519;DHT22;66629;47.346;19.038;2023-05-10T04:38:42;12.06;75.55
77519;DHT22;66629;47.346;19.038;2023-05-10T04:41:09;12.25;74.80
77519;DHT22;66629;47.346;19.038;2023-05-10T04:43:35;12.34;74.35
77519;DHT22;66629;47.346;19.038;2023-05-10T04:46:01;12.44;74.19
77519;DHT22;66629;47.346;19.038;2023-05-10T04:48:27;12.64;73.72
77519;DHT22;66629;47.346;19.038;2023-05-10T04:50:52;12.74;73.24
77519;DHT22;66629;47.346;19.038;2023-05-10T04:53:18;12.63;73.67
77519;DHT22;66629;47.346;19.038;2023-05-10T04:55:43;12.49;74.42
77519;DHT22;66629;47.346;19.038;2023-05-10T04:58:09;12.28;74.41
77519;DHT22;66629;47.346;19.038;2023-05-10T05:00:34;12.26;74.82
77519;DHT22;66629;47.346;19.038;2023-05-10T05:03:00;12.26;74.94
77519;DHT22;66629;47.346;19.038;2023-05-10T05:05:26;12.63;73.60
77519;DHT22;66629;47.346;19.038;2023-05-10T05:07:51;13.08;72.95
77519;DHT22;66629;47.346;19.038;2023-05-10T05:10:17;13.50;71.54
77519;DHT22;66629;47.346;19.038;2023-05-10T05:12:42;13.69;70.86
77519;DHT22;66629;47.346;19.038;2023-05-10T05:15:07;14.03;70.14
77519;DHT22;66629;47.346;19.038;2023-05-10T05:17:35;14.21;68.61
77519;DHT22;66629;47.346;19.038;2023-05-10T05:20:00;14.08;69.04
77519;DHT22;66629;47.346;19.038;2023-05-10T05:22:26;14.24;68.20
77519;DHT22;66629;47.346;19.038;2023-05-10T05:24:55;14.48;68.02
77519;DHT22;66629;47.346;19.038;2023-05-10T05:27:20;14.08;69.32
77519;DHT22;66629;47.346;19.038;2023-05-10T05:29:52;14.10;68.58
77519;DHT22;66629;47.346;19.038;2023-05-10T05:32:18;14.62;67.77
77519;DHT22;66629;47.346;19.038;2023-05-10T05:34:46;14.31;67.72
77519;DHT22;66629;47.346;19.038;2023-05-10T05:37:15;13.85;69.05
77519;DHT22;66629;47.346;19.038;2023-05-10T05:39:42;14.72;68.00
77519;DHT22;66629;47.346;19.038;2023-05-10T05:42:12;14.73;66.86
77519;DHT22;66629;47.346;19.038;2023-05-10T05:44:37;14.49;67.34
77519;DHT22;66629;47.346;19.038;2023-05-10T05:47:03;14.51;67.20
77519;DHT22;66629;47.346;19.038;2023-05-10T05:49:29;14.73;66.74
77519;DHT22;66629;47.346;19.038;2023-05-10T05:51:58;14.93;65.58
77519;DHT22;66629;47.346;19.038;2023-05-10T05:54:24;15.19;64.98
77519;DHT22;66629;47.346;19.038;2023-05-10T05:56:49;15.87;63.97
77519;DHT22;66629;47.346;19.038;2023-05-10T05:59:15;15.74;62.96
77519;DHT22;66629;47.346;19.038;2023-05-10T06:01:40;15.91;62.80
77519;DHT22;66629;47.346;19.038;2023-05-10T06:04:05;15.42;64.18
77519;DHT22;66629;47.346;19.038;2023-05-10T06:06:31;15.93;62.22
77519;DHT22;66629;47.346;19.038;2023-05-10T06:08:57;15.76;63.19
77519;DHT22;66629;47.346;19.038;2023-05-10T06:11:22;15.72;63.00
77519;DHT22;66629;47.346;19.038;2023-05-10T06:13:49;15.98;62.61
77519;DHT22;66629;47.346;19.038;2023-05-10T06:16:14;15.58;63.52
77519;DHT22;66629;47.346;19.038;2023-05-10T06:18:39;16.07;63.64
77519;DHT22;66629;47.346;19.038;2023-05-10T06:21:05;16.22;61.88
77519;DHT22;66629;47.346;19.038;2023-05-10T06:23:31;16.08;63.25
77519;DHT22;66629;47.346;19.038;2023-05-10T06:25:56;15.94;62.82
77519;DHT22;66629;47.346;19.038;2023-05-10T06:28:21;16.31;61.74
77519;DHT22;66629;47.346;19.038;2023-05-10T06:30:47;16.29;61.12
77519;DHT22;66629;47.346;19.038;2023-05-10T06:33:13;15.82;62.02
77519;DHT22;66629;47.346;19.038;2023-05-10T06:35:38;15.90;62.51
77519;DHT22;66629;47.346;19.038;2023-05-10T06:38:04;16.51;62.01
77519;DHT22;66629;47.346;19.038;2023-05-10T06:40:29;16.77;61.26
77519;DHT22;66629;47.346;19.038;2023-05-10T06:42:55;16.53;60.34
77519;DHT22;66629;47.346;19.038;2023-05-10T06:45:20;16.53;60.73
77519;DHT22;66629;47.346;19.038;2023-05-10T06:47:45;16.14;61.04
77519;DHT22;66629;47.346;19.038;2023-05-10T06:50:11;16.85;60.58
77519;DHT22;66629;47.346;19.038;2023-05-10T06:52:37;16.56;60.71
77519;DHT22;66629;47.346;19.038;2023-05-10T06:55:05;16.38;60.95
77519;DHT22;66629;47.346;19.038;2023-05-10T06:57:31;16.48;59.92
77519;DHT22;66629;47.346;19.038;2023-05-10T07:00:00;16.53;61.21
77519;DHT22;66629;47.346;19.038;2023-05-10T07:02:26;16.56;60.24
77519;DHT22;66629;47.346;19.038;2023-05-10T07:04:51;16.63;60.40
77519;DHT22;66629;47.346;19.038;2023-05-10T07:07:17;16.71;60.18
77519;DHT22;66629;47.346;19.038;2023-05-10T07:09:43;16.87;59.37
77519;DHT22;66629;47.346;19.038;2023-05-10T07:12:08;17.07;58.41
77519;DHT22;66629;47.346;19.038;2023-05-10T07:14:34;17.36;58.96
77519;DHT22;66629;47.346;19.038;2023-05-10T07:16:59;17.12;58.39
77519;DHT22;66629;47.346;19.038;2023-05-10T07:19:25;16.85;58.91
77519;DHT22;66629;47.346;19.038;2023-05-10T07:21:50;16.92;59.11
77519;DHT22;66629;47.346;19.038;2023-05-10T07:24:16;17.28;58.24
77519;DHT22;66629;47.346;19.038;2023-05-10T07:26:41;17.50;57.29
77519;DHT22;66629;47.346;19.038;2023-05-10T07:29:06;17.87;56.26
77519;DHT22;66629;47.346;19.038;2023-05-10T07:31:32;18.02;55.35
77519;DHT22;66629;47.346;19.038;2023-05-10T07:33:57;18.06;56.04
77519;DHT22;66629;47.346;19.038;2023-05-10T07:36:23;17.91;54.80
77519;DHT22;66629;47.346;19.038;2023-05-10T07:38:48;17.28;56.40
77519;DHT22;66629;47.346;19.038;2023-05-10T07:41:14;17.49;56.41
77519;DHT22;66629;47.346;19.038;2023-05-10T07:43:40;17.35;56.29
77519;DHT22;66629;47.346;19.038;2023-05-10T07:46:05;17.35;56.22
77519;DHT22;66629;47.346;19.038;2023-05-10T07:48:31;17.59;57.15
77519;DHT22;66629;47.346;19.038;2023-05-10T07:50:56;17.36;57.29
77519;DHT22;66629;47.346;19.038;2023-05-10T07:53:22;17.60;55.83
77519;DHT22;66629;47.346;19.038;2023-05-10T07:55:51;17.15;56.40
77519;DHT22;66629;47.346;19.038;2023-05-10T07:58:19;17.99;57.67
77519;DHT22;66629;47.346;19.038;2023-05-10T08:00:45;18.40;55.37
77519;DHT22;66629;47.346;19.038;2023-05-10T08:03:10;17.10;57.76
77519;DHT22;66629;47.346;19.038;2023-05-10T08:05:36;16.71;57.99
77519;DHT22;66629;47.346;19.038;2023-05-10T08:08:01;16.91;58.78
77519;DHT22;66629;47.346;19.038;2023-05-10T08:10:26;17.42;57.85
77519;DHT22;66629;47.346;19.038;2023-05-10T08:12:52;17.43;56.98
77519;DHT22;66629;47.346;19.038;2023-05-10T08:15:17;18.09;55.28
77519;DHT22;66629;47.346;19.038;2023-05-10T08:17:43;17.64;55.77
77519;DHT22;66629;47.346;19.038;2023-05-10T08:20:08;17.77;55.57
77519;DHT22;66629;47.346;19.038;2023-05-10T08:22:34;17.84;55.27
77519;DHT22;66629;47.346;19.038;2023-05-10T08:25:00;18.23;55.50
77519;DHT22;66629;47.346;19.038;2023-05-10T08:27:25;17.80;55.47
77519;DHT22;66629;47.346;19.038;2023-05-10T08:29:50;18.21;54.92
77519;DHT22;66629;47.346;19.038;2023-05-10T08:32:16;18.26;55.38
77519;DHT22;66629;47.346;19.038;2023-05-10T08:34:42;18.29;54.98
77519;DHT22;66629;47.346;19.038;2023-05-10T08:37:08;18.51;54.46
77519;DHT22;66629;47.346;19.038;2023-05-10T08:39:36;19.27;52.25
77519;DHT22;66629;47.346;19.038;2023-05-10T08:42:03;19.26;51.85
77519;DHT22;66629;47.346;19.038;2023-05-10T08:44:32;19.50;50.86
77519;DHT22;66629;47.346;19.038;2023-05-10T08:46:59;18.63;52.97
77519;DHT22;66629;47.346;19.038;2023-05-10T08:49:27;18.48;53.10
77519;DHT22;66629;47.346;19.038;2023-05-10T08:51:56;19.05;52.65
77519;DHT22;66629;47.346;19.038;2023-05-10T08:54:22;18.48;52.99
77519;DHT22;66629;47.346;19.038;2023-05-10T08:56:48;18.08;54.52
77519;DHT22;66629;47.346;19.038;2023-05-10T08:59:14;18.02;54.00
77519;DHT22;66629;47.346;19.038;2023-05-10T09:01:41;17.92;54.55
77519;DHT22;66629;47.346;19.038;2023-05-10T09:04:07;17.89;54.92
77519;DHT22;66629;47.346;19.038;2023-05-10T09:06:33;18.72;54.29
77519;DHT22;66629;47.346;19.038;2023-05-10T09:08:59;17.91;54.04
77519;DHT22;66629;47.346;19.038;2023-05-10T09:11:25;18.05;53.42
77519;DHT22;66629;47.346;19.038;2023-05-10T09:13:52;18.99;52.56
77519;DHT22;66629;47.346;19.038;2023-05-10T09:16:17;19.30;51.86
77519;DHT22;66629;47.346;19.038;2023-05-10T09:18:43;19.40;51.34
77519;DHT22;66629;47.346;19.038;2023-05-10T09:21:09;19.13;51.57
77519;DHT22;66629;47.346;19.038;2023-05-10T09:23:35;18.68;52.02
77519;DHT22;66629;47.346;19.038;2023-05-10T09:26:07;18.05;53.17
77519;DHT22;66629;47.346;19.038;2023-05-10T09:28:33;18.01;53.18
77519;DHT22;66629;47.346;19.038;2023-05-10T09:30:59;18.98;51.21
77519;DHT22;66629;47.346;19.038;2023-05-10T09:33:25;18.88;51.65
77519;DHT22;66629;47.346;19.038;2023-05-10T09:35:51;19.00;51.89
77519;DHT22;66629;47.346;19.038;2023-05-10T09:38:17;18.34;52.47
77519;DHT22;66629;47.346;19.038;2023-05-10T09:40:51;19.10;50.95
77519;DHT22;66629;47.346;19.038;2023-05-10T09:43:20;19.46;50.44
77519;DHT22;66629;47.346;19.038;2023-05-10T09:45:48;19.66;50.02
77519;DHT22;66629;47.346;19.038;2023-05-10T09:48:14;19.13;49.45
77519;DHT22;66629;47.346;19.038;2023-05-10T09:50:41;19.50;50.22
77519;DHT22;66629;47.346;19.038;2023-05-10T09:53:06;20.18;47.66
77519;DHT22;66629;47.346;19.038;2023-05-10T09:55:39;19.93;48.90
77519;DHT22;66629;47.346;19.038;2023-05-10T09:58:05;19.55;49.53
77519;DHT22;66629;47.346;19.038;2023-05-10T10:00:36;19.30;49.44
77519;DHT22;66629;47.346;19.038;2023-05-10T10:03:02;19.62;49.50
77519;DHT22;66629;47.346;19.038;2023-05-10T10:05:40;19.64;49.29
77519;DHT22;66629;47.346;19.038;2023-05-10T10:08:06;19.86;49.18
77519;DHT22;66629;47.346;19.038;2023-05-10T10:10:32;19.09;51.69
77519;DHT22;66629;47.346;19.038;2023-05-10T10:12:59;19.02;48.96
77519;DHT22;66629;47.346;19.038;2023-05-10T10:15:25;19.97;48.29
77519;DHT22;66629;47.346;19.038;2023-05-10T10:17:52;20.44;46.86
77519;DHT22;66629;47.346;19.038;2023-05-10T10:20:19;20.34;47.57
77519;DHT22;66629;47.346;19.038;2023-05-10T10:22:44;20.49;46.58
77519;DHT22;66629;47.346;19.038;2023-05-10T10:25:11;20.33;47.73
77519;DHT22;66629;47.346;19.038;2023-05-10T10:30:40;20.65;47.17
77519;DHT22;66629;47.346;19.038;2023-05-10T10:35:54;19.93;49.59
77519;DHT22;66629;47.346;19.038;2023-05-10T10:38:20;19.83;49.87
77519;DHT22;66629;47.346;19.038;2023-05-10T10:40:46;19.31;49.52
77519;DHT22;66629;47.346;19.038;2023-05-10T10:43:26;19.43;48.57
77519;DHT22;66629;47.346;19.038;2023-05-10T10:46:17;19.59;48.73
77519;DHT22;66629;47.346;19.038;2023-05-10T10:48:50;20.05;48.07
77519;DHT22;66629;47.346;19.038;2023-05-10T10:51:16;20.48;47.20
77519;DHT22;66629;47.346;19.038;2023-05-10T10:53:42;20.09;47.05
77519;DHT22;66629;47.346;19.038;2023-05-10T10:56:12;19.85;47.31
77519;DHT22;66629;47.346;19.038;2023-05-10T10:58:40;20.06;47.02
77519;DHT22;66629;47.346;19.038;2023-05-10T11:01:34;19.35;47.27
77519;DHT22;66629;47.346;19.038;2023-05-10T11:06:33;19.26;47.34
77519;DHT22;66629;47.346;19.038;2023-05-10T11:09:05;19.43;47.69
77519;DHT22;66629;47.346;19.038;2023-05-10T11:11:31;19.38;48.40
77519;DHT22;66629;47.346;19.038;2023-05-10T11:14:03;19.38;48.13
77519;DHT22;66629;47.346;19.038;2023-05-10T11:16:40;19.87;46.15
77519;DHT22;66629;47.346;19.038;2023-05-10T11:19:15;20.35;45.29
77519;DHT22;66629;47.346;19.038;2023-05-10T11:21:51;20.28;46.25
77519;DHT22;66629;47.346;19.038;2023-05-10T11:24:22;20.62;46.47
77519;DHT22;66629;47.346;19.038;2023-05-10T11:26:50;20.89;45.49
77519;DHT22;66629;47.346;19.038;2023-05-10T11:29:16;20.77;44.90
77519;DHT22;66629;47.346;19.038;2023-05-10T11:31:45;21.48;44.34
77519;DHT22;66629;47.346;19.038;2023-05-10T11:34:22;21.06;44.32
77519;DHT22;66629;47.346;19.038;2023-05-10T11:36:51;20.94;43.65
77519;DHT22;66629;47.346;19.038;2023-05-10T11:39:19;20.40;44.51
77519;DHT22;66629;47.346;19.038;2023-05-10T11:41:48;20.18;46.45
77519;DHT22;66629;47.346;19.038;2023-05-10T11:44:13;20.21;45.91
77519;DHT22;66629;47.346;19.038;2023-05-10T11:46:39;19.59;47.09
77519;DHT22;66629;47.346;19.038;2023-05-10T11:49:07;19.61;45.47
77519;DHT22;66629;47.346;19.038;2023-05-10T11:51:34;19.87;45.98
77519;DHT22;66629;47.346;19.038;2023-05-10T11:54:01;20.09;45.29
77519;DHT22;66629;47.346;19.038;2023-05-10T11:56:32;20.05;45.62
77519;DHT22;66629;47.346;19.038;2023-05-10T11:58:57;19.85;45.18
77519;DHT22;66629;47.346;19.038;2023-05-10T12:01:27;19.82;45.62
77519;DHT22;66629;47.346;19.038;2023-05-10T12:03:54;19.85;46.44
77519;DHT22;66629;47.346;19.038;2023-05-10T12:06:20;19.82;45.93
77519;DHT22;66629;47.346;19.038;2023-05-10T12:08:47;19.59;45.92
77519;DHT22;66629;47.346;19.038;2023-05-10T12:11:13;19.55;46.22
77519;DHT22;66629;47.346;19.038;2023-05-10T12:13:42;19.53;45.93
77519;DHT22;66629;47.346;19.038;2023-05-10T12:16:21;19.78;45.78
77519;DHT22;66629;47.346;19.038;2023-05-10T12:18:50;19.57;45.83
77519;DHT22;66629;47.346;19.038;2023-05-10T12:21:17;19.78;45.76
77519;DHT22;66629;47.346;19.038;2023-05-10T12:23:45;19.87;45.52
77519;DHT22;66629;47.346;19.038;2023-05-10T12:26:11;20.01;44.91
77519;DHT22;66629;47.346;19.038;2023-05-10T12:28:37;19.78;44.26
77519;DHT22;66629;47.346;19.038;2023-05-10T12:31:03;19.78;44.93
77519;DHT22;66629;47.346;19.038;2023-05-10T12:33:41;19.71;44.29
77519;DHT22;66629;47.346;19.038;2023-05-10T12:36:12;20.07;44.34
77519;DHT22;66629;47.346;19.038;2023-05-10T12:38:39;20.38;44.34
77519;DHT22;66629;47.346;19.038;2023-05-10T12:41:08;20.25;44.61
77519;DHT22;66629;47.346;19.038;2023-05-10T12:43:34;19.92;44.39
77519;DHT22;66629;47.346;19.038;2023-05-10T12:46:08;19.85;44.09
77519;DHT22;66629;47.346;19.038;2023-05-10T12:48:34;19.89;44.67
77519;DHT22;66629;47.346;19.038;2023-05-10T12:51:01;19.89;45.48
77519;DHT22;66629;47.346;19.038;2023-05-10T12:53:26;20.05;44.24
77519;DHT22;66629;47.346;19.038;2023-05-10T12:55:52;20.47;44.32
77519;DHT22;66629;47.346;19.038;2023-05-10T12:58:18;20.58;43.93
77519;DHT22;66629;47.346;19.038;2023-05-10T13:00:43;20.49;43.58
77519;DHT22;66629;47.346;19.038;2023-05-10T13:03:09;20.61;43.18
77519;DHT22;66629;47.346;19.038;2023-05-10T13:05:35;20.96;42.86
77519;DHT22;66629;47.346;19.038;2023-05-10T13:08:01;21.14;41.76
77519;DHT22;66629;47.346;19.038;2023-05-10T13:10:29;20.93;42.43
77519;DHT22;66629;47.346;19.038;2023-05-10T13:12:55;21.01;42.03
77519;DHT22;66629;47.346;19.038;2023-05-10T13:15:20;21.20;41.67
77519;DHT22;66629;47.346;19.038;2023-05-10T13:17:46;20.97;42.45
77519;DHT22;66629;47.346;19.038;2023-05-10T13:20:11;20.90;42.27
77519;DHT22;66629;47.346;19.038;2023-05-10T13:22:37;21.25;42.41
77519;DHT22;66629;47.346;19.038;2023-05-10T13:25:02;21.17;42.66
77519;DHT22;66629;47.346;19.038;2023-05-10T13:27:28;21.07;43.35
77519;DHT22;66629;47.346;19.038;2023-05-10T13:29:54;20.96;42.42
77519;DHT22;66629;47.346;19.038;2023-05-10T13:32:20;20.73;43.27
77519;DHT22;66629;47.346;19.038;2023-05-10T13:34:45;20.14;43.41
77519;DHT22;66629;47.346;19.038;2023-05-10T13:37:11;19.96;43.50
77519;DHT22;66629;47.346;19.038;2023-05-10T13:39:36;20.37;43.58
77519;DHT22;66629;47.346;19.038;2023-05-10T13:42:03;20.42;42.69
77519;DHT22;66629;47.346;19.038;2023-05-10T13:44:29;20.49;42.52
77519;DHT22;66629;47.346;19.038;2023-05-10T13:46:54;20.33;42.19
77519;DHT22;66629;47.346;19.038;2023-05-10T13:49:20;20.61;42.21
77519;DHT22;66629;47.346;19.038;2023-05-10T13:51:47;20.62;41.86
77519;DHT22;66629;47.346;19.038;2023-05-10T13:54:12;20.71;42.10
77519;DHT22;66629;47.346;19.038;2023-05-10T13:56:38;20.58;41.71
77519;DHT22;66629;47.346;19.038;2023-05-10T13:59:03;20.41;42.36
77519;DHT22;66629;47.346;19.038;2023-05-10T14:01:29;20.69;42.04
77519;DHT22;66629;47.346;19.038;2023-05-10T14:03:54;20.38;42.09
77519;DHT22;66629;47.346;19.038;2023-05-10T14:06:20;20.66;40.45
77519;DHT22;66629;47.346;19.038;2023-05-10T14:08:45;20.66;40.43
77519;DHT22;66629;47.346;19.038;2023-05-10T14:11:10;20.99;40.29
77519;DHT22;66629;47.346;19.038;2023-05-10T14:13:36;20.82;38.93
77519;DHT22;66629;47.346;19.038;2023-05-10T14:16:02;20.68;39.06
77519;DHT22;66629;47.346;19.038;2023-05-10T14:18:28;20.20;39.88
77519;DHT22;66629;47.346;19.038;2023-05-10T14:20:53;20.20;40.50
77519;DHT22;66629;47.346;19.038;2023-05-10T14:23:19;20.25;39.73
77519;DHT22;66629;47.346;19.038;2023-05-10T14:25:50;20.21;40.31
77519;DHT22;66629;47.346;19.038;2023-05-10T14:28:16;20.31;40.11
77519;DHT22;66629;47.346;19.038;2023-05-10T14:30:42;20.41;39.62
77519;DHT22;66629;47.346;19.038;2023-05-10T14:33:08;20.45;40.86
77519;DHT22;66629;47.346;19.038;2023-05-10T14:35:34;20.42;40.94
77519;DHT22;66629;47.346;19.038;2023-05-10T14:37:59;20.72;40.63
77519;DHT22;66629;47.346;19.038;2023-05-10T14:40:24;20.93;39.54
77519;DHT22;66629;47.346;19.038;2023-05-10T14:42:50;20.91;40.16
77519;DHT22;66629;47.346;19.038;2023-05-10T14:45:17;21.25;39.74
77519;DHT22;66629;47.346;19.038;2023-05-10T14:47:43;21.27;39.17
77519;DHT22;66629;47.346;19.038;2023-05-10T14:50:08;21.48;38.98
77519;DHT22;66629;47.346;19.038;2023-05-10T14:52:34;21.30;38.59
77519;DHT22;66629;47.346;19.038;2023-05-10T14:55:00;21.08;38.23
77519;DHT22;66629;47.346;19.038;2023-05-10T14:57:26;21.08;39.05
77519;DHT22;66629;47.346;19.038;2023-05-10T14:59:54;21.48;39.09
77519;DHT22;66629;47.346;19.038;2023-05-10T15:02:20;21.77;39.90
77519;DHT22;66629;47.346;19.038;2023-05-10T15:04:45;21.55;39.76
77519;DHT22;66629;47.346;19.038;2023-05-10T15:07:11;21.03;39.74
77519;DHT22;66629;47.346;19.038;2023-05-10T15:09:39;20.71;40.12
77519;DHT22;66629;47.346;19.038;2023-05-10T15:12:05;20.45;41.05
77519;DHT22;66629;47.346;19.038;2023-05-10T15:14:30;20.37;40.90
77519;DHT22;66629;47.346;19.038;2023-05-10T15:16:56;20.25;41.32
77519;DHT22;66629;47.346;19.038;2023-05-10T15:19:21;19.94;42.13
77519;DHT22;66629;47.346;19.038;2023-05-10T15:21:47;19.85;42.26
77519;DHT22;66629;47.346;19.038;2023-05-10T15:24:13;19.55;42.56
77519;DHT22;66629;47.346;19.038;2023-05-10T15:26:38;19.58;42.88
77519;DHT22;66629;47.346;19.038;2023-05-10T15:29:03;19.57;42.80
77519;DHT22;66629;47.346;19.038;2023-05-10T15:31:29;19.53;43.35
77519;DHT22;66629;47.346;19.038;2023-05-10T15:33:57;19.55;43.22
77519;DHT22;66629;47.346;19.038;2023-05-10T15:36:24;19.46;43.96
77519;DHT22;66629;47.346;19.038;2023-05-10T15:38:49;19.54;43.76
77519;DHT22;66629;47.346;19.038;2023-05-10T15:41:15;19.62;42.93